KPIT/PIT METAR and TAF weather

Enter ICAO airport designator
Station Type Date Time Source
KPIT METAR 2019/08/26 06:51 UTC NOAA

KPIT 260651Z 00000KT 10SM FEW250 15/11 A3016 RMK AO2 SLP214 T01500106


Station Type Date Time Source
KPIT Decoded METAR 2019/08/26 06:51 UTC NOAA

Station name not available
Aug 26, 2019 - 02:51 AM EDT / 2019.08.26 0651 UTC
Wind: Calm:0
Visibility: 10 mile(s):0
Sky conditions: mostly clear
Temperature: 59.0 F (15.0 C)
Dew Point: 51.1 F (10.6 C)
Relative Humidity: 74%
Pressure (altimeter): 30.16 in. Hg (1021 hPa)
ob: KPIT 260651Z 00000KT 10SM FEW250 15/11 A3016 RMK AO2 SLP214 T01500106
cycle: 7

Station Type Date Time Source
KPIT TAF 2019/08/26 06:22 UTC NOAA

TAF KPIT 260520Z 2606/2712 12004KT P6SM SCT250
FM262000 14009KT P6SM BKN100
FM270600 15008KT P6SM VCSH OVC030

Example: see airport list